Winkler County Airport Wink US
ICAO: KINK
IATA: INK
Category: Medium
Scheduled Services: No

Elevation: 2822 ft
TransAlt. 18000 ft.

Airport Communications:
ASOS:118.325
FORT WORTH CNTR:133.1
SAN ANGELO RDO:122.05
CTAF/UNICOM:123

KINK Zoom In..

Runways:

(A) RW 04 length 3514 ft width 100 ft
---- / hdg 42

(B) RW 13 length 5003 ft width 100 ft
---- / hdg 132

(C) RW 22 length 3514 ft width 100 ft
---- / hdg 222

(D) RW 31 length 5003 ft width 100 ft
---- / hdg 312

Location; KINK
Day. 14 / Time. 00.53 Zulu
* Altimeter: 29.89
* Temperature: 39° c. 102.2°f.
* Wind from: 150° Speed 13 kn.
Dewpoint: 07° c.
Visibility: 10 Statute Miles.
Clouds: Clear (automated report).

KINK 140053Z AUTO 15013KT 10SM CLR 39/07 A2989 RMK AO2 SLP067 T03890072

Going to: --> -->


Wind From 150°
Speed 13 kn.

 
 
jpsmedia worldairports.se 2020   terms of use